MBW weather

Melbourne Moorabbin Airport
Melbourne, Victoria, Australia

Public forecast

Using degrees Celsius for public forecast. Weather courtesy of forecast.io.

METAR (pilot weather report)

Closest report is Melbourne Essendon Airport, 17.6 nm (32.7 km) NNW. Retrieved 2017/05/28 06:20 UTC (10 minutes ago):

YMEN 280620Z AUTO 26017G27KT 9999 // SCT033 SCT049 SCT056 10/05 Q1009

TAF (pilot weather forecast)

Forecast is more than 12 hours old.

Closest forecast is Melbourne International Airport, 21.9 nm (40.6 km) NW. Retrieved 2017/05/27 00:00 UTC (1 day ago):

TAF YMML 272324Z 2800/2906 31012KT 9999 -SHRA SCT035 FM280100 28015G25KT 9999 -SHRA SCT035 FM280700 28012KT 9999 SCT035 INTER 2803/2807 3000 SHRAGS BKN020